Winchester, ID

6:09 AM PDT on September 30, 2014 (GMT -0700)
Walla Walla Regional | Change Station
CLOSE
Current Station
Airport
Location: Walla Walla,
Elevation: 1204 ft
Nearby Weather Stations

Elev 1204 ft 46.09 °N, 118.29 °W | Updated 16 minutes ago

Overcast
Overcast
55 °F
Feels Like 55 °F
N
14
Wind Variable Wind from SSW

Today
High -- | Low -- °F
--% Chance of Precip.
Yesterday
High -- | Low -- °F
Precip. -- in
6:43 AM 6:28 PM
Waxing Crescent, 36% visible
Pressure 29.96 in
Visibility 10.0 miles
Clouds Overcast 7000 ft
Dew Point 44 °F
Humidity 67%
Rainfall 0.00 in
Snow Depth 0 in , 1 in , 1 in
UV 0 out of 12
Pollen 6.50 out of 12
PM2.5 Good
Flu Activity Not available.
METAR KALW 301253Z 21012KT 10SM OVC070 13/07 A2997 RMK AO2 SLP145 T01280067

More Conditions Fewer Conditions

Pressure 29.96 in
Visibility 10.0 miles
Clouds Overcast 7000 ft
Dew Point 44 °F
Humidity 67%
Rainfall 0.00 in
Snow Depth 0 in , 1 in , 1 in
UV 0 out of 12
Pollen 6.50 out of 12
PM2.5 Good
Flu Activity Not available.
METAR KALW 301253Z 21012KT 10SM OVC070 13/07 A2997 RMK AO2 SLP145 T01280067

More Conditions Fewer Conditions

10-Day Weather Forecast

Almanac

Astronomy

Sep. 30, 2014 Rise Set
Actual Time 6:43 AM PDT 6:28 PM PDT
Civil Twilight 6:13 AM PDT 6:58 PM PDT
Nautical Twilight 5:38 AM PDT 7:32 PM PDT
Astronomical Twilight 5:03 AM PDT 8:08 PM PDT
Moon 1:11 PM PDT 10:47 PM PDT
Length of Visible Light 12h 44m
Length of Day
11h 44m
Tomorrow will be 3m 15s shorter.
Waxing Crescent, 36% of the Moon is Illuminated
Today
Waxing Crescent
Oct 1
First Quarter
Oct 8
Full
Oct 15
Last Quarter
Oct 23
New

Today's Extremes

State Highs State Lows

Community

WunderPhotos

Upload Photos

1,757,628 photos uploaded!

Nearby

Air Quality

  Air Quality AQ Index Pollutant
Yesterday Good
PM2.5
Current Good
PM2.5
Tuesday Good
PM2.5
Wednesday Good
PM2.5

Snow Depth

Station Depth Elevation
Banner Summit 0 in 7040 ft
Savage Pass 1 in 6170 ft
Schwartz Lake 1 in 8620 ft
Atlanta Summit 1 in 7580 ft
Deadwood Summit 0 in 6860 ft

Earthquake Activity

City Distance Mag. Time & Date
No recent earthquake activity has been reported nearby.
Minimum magnitude displayed is 2.5.

Coastal Water Temperatures

Place Temperature
No Stations Reporting

Nearby Weather Stations